createdAt,value
2022-12-18T00:01:27.788Z,-1.94
2022-12-18T00:03:58.765Z,-1.90
2022-12-18T00:06:27.318Z,-2.00
2022-12-18T00:08:55.314Z,-2.11
2022-12-18T00:11:26.519Z,-1.92
2022-12-18T00:13:57.574Z,-1.92
2022-12-18T00:16:28.571Z,-1.95
2022-12-18T00:18:57.838Z,-2.28
2022-12-18T00:21:27.550Z,-2.10
2022-12-18T00:24:02.190Z,-2.20
2022-12-18T00:26:33.287Z,-2.05
2022-12-18T00:29:14.724Z,-2.37
2022-12-18T00:31:42.755Z,-2.16
2022-12-18T00:34:13.753Z,-2.18
2022-12-18T00:36:41.821Z,-2.25
2022-12-18T00:39:11.398Z,-2.21
2022-12-18T00:41:56.087Z,-2.13
2022-12-18T00:44:24.755Z,-2.18
2022-12-18T00:46:53.668Z,-2.12
2022-12-18T00:49:21.198Z,-2.27
2022-12-18T00:51:48.733Z,-2.40
2022-12-18T00:54:16.071Z,-2.38
2022-12-18T00:56:49.027Z,-2.33
2022-12-18T00:59:21.226Z,-2.38
2022-12-18T01:01:48.174Z,-2.48
2022-12-18T01:04:17.890Z,-2.48
2022-12-18T01:06:44.849Z,-2.54
2022-12-18T01:09:14.043Z,-2.50
2022-12-18T01:11:40.688Z,-2.54
2022-12-18T01:14:09.954Z,-2.69
2022-12-18T01:16:36.721Z,-2.56
2022-12-18T01:19:03.304Z,-2.48
2022-12-18T01:21:29.808Z,-2.40
2022-12-18T01:23:57.593Z,-2.56
2022-12-18T01:26:30.495Z,-2.68
2022-12-18T01:28:57.996Z,-2.98
2022-12-18T01:31:28.305Z,-2.77
2022-12-18T01:33:58.127Z,-2.50
2022-12-18T01:36:31.122Z,-2.37
2022-12-18T01:38:59.942Z,-2.39
2022-12-18T01:41:52.192Z,-2.52
2022-12-18T01:44:59.928Z,-2.43
2022-12-18T01:47:49.113Z,-2.51
2022-12-18T01:50:19.943Z,-2.71
2022-12-18T01:52:53.846Z,-2.69
2022-12-18T01:55:25.911Z,-2.47
2022-12-18T01:57:58.906Z,-2.68
2022-12-18T02:00:27.816Z,-2.83
2022-12-18T02:02:55.296Z,-2.72
2022-12-18T02:05:50.423Z,-2.45
2022-12-18T02:08:27.249Z,-2.61
2022-12-18T02:11:07.965Z,-2.55
2022-12-18T02:13:41.947Z,-2.63
2022-12-18T02:16:25.615Z,-2.91
2022-12-18T02:18:58.937Z,-2.79
2022-12-18T02:21:32.250Z,-2.73
2022-12-18T02:24:08.128Z,-2.79
2022-12-18T02:26:46.568Z,-2.75
2022-12-18T02:29:25.223Z,-2.68
2022-12-18T02:32:00.309Z,-2.57
2022-12-18T02:34:33.198Z,-2.46
2022-12-18T02:37:03.115Z,-2.42
2022-12-18T02:39:34.381Z,-2.74
2022-12-18T02:42:08.773Z,-2.67
2022-12-18T02:44:50.322Z,-2.74
2022-12-18T02:47:22.093Z,-2.64
2022-12-18T02:50:10.611Z,-2.54
2022-12-18T02:52:47.010Z,-2.74
2022-12-18T02:55:31.990Z,-2.88
2022-12-18T02:58:09.554Z,-2.84
2022-12-18T03:00:49.706Z,-2.72
2022-12-18T03:03:31.212Z,-3.06
2022-12-18T03:06:05.405Z,-3.11
2022-12-18T03:08:38.850Z,-2.90
2022-12-18T03:11:12.704Z,-2.87
2022-12-18T03:13:49.523Z,-3.05
2022-12-18T03:16:26.624Z,-2.79
2022-12-18T03:19:00.021Z,-2.76
2022-12-18T03:21:48.684Z,-2.96
2022-12-18T03:24:17.014Z,-2.80
2022-12-18T03:26:50.292Z,-2.99
2022-12-18T03:29:25.303Z,-2.98
2022-12-18T03:32:01.617Z,-3.07
2022-12-18T03:34:34.733Z,-3.08
2022-12-18T03:37:04.998Z,-2.93
2022-12-18T03:39:37.436Z,-2.92
2022-12-18T03:42:20.322Z,-2.83
2022-12-18T03:45:01.462Z,-2.80
2022-12-18T03:47:43.411Z,-2.98
2022-12-18T03:50:22.691Z,-3.03
2022-12-18T03:53:01.423Z,-2.96
2022-12-18T03:55:30.552Z,-3.84
2022-12-18T03:57:58.845Z,-3.65
2022-12-18T04:00:25.419Z,-3.47
2022-12-18T04:02:54.936Z,-3.49
2022-12-18T04:05:25.295Z,-3.26
2022-12-18T04:07:58.166Z,-3.62
2022-12-18T04:10:24.737Z,-3.83
2022-12-18T04:12:51.255Z,-3.79
2022-12-18T04:15:22.828Z,-3.70
2022-12-18T04:17:50.669Z,-3.70
2022-12-18T04:20:18.081Z,-3.73
2022-12-18T04:22:44.621Z,-3.53
2022-12-18T04:25:13.650Z,-3.54
2022-12-18T04:27:42.669Z,-3.68
2022-12-18T04:30:09.790Z,-3.54
2022-12-18T04:32:36.369Z,-3.45
2022-12-18T04:35:07.581Z,-3.43
2022-12-18T04:37:34.100Z,-3.36
2022-12-18T04:40:02.970Z,-3.22
2022-12-18T04:42:31.831Z,-3.30
2022-12-18T04:44:58.298Z,-3.30
2022-12-18T04:47:24.818Z,-3.14
2022-12-18T04:49:51.295Z,-3.16
2022-12-18T04:52:20.210Z,-3.22
2022-12-18T04:54:49.187Z,-3.53
2022-12-18T04:57:15.727Z,-3.70
2022-12-18T04:59:42.230Z,-3.71
2022-12-18T05:02:08.835Z,-3.46
2022-12-18T05:04:35.405Z,-3.32
2022-12-18T05:07:04.141Z,-3.21
2022-12-18T05:09:32.874Z,-3.15
2022-12-18T05:12:01.688Z,-3.35
2022-12-18T05:14:30.145Z,-3.46
2022-12-18T05:17:01.096Z,-3.44
2022-12-18T05:19:28.072Z,-3.28
2022-12-18T05:21:54.607Z,-3.46
2022-12-18T05:24:21.096Z,-3.44
2022-12-18T05:26:47.654Z,-3.48
2022-12-18T05:29:17.220Z,-3.53
2022-12-18T05:31:43.662Z,-3.55
2022-12-18T05:34:13.443Z,-3.63
2022-12-18T05:36:42.804Z,-3.57
2022-12-18T05:39:14.128Z,-3.39
2022-12-18T05:41:43.483Z,-3.39
2022-12-18T05:44:12.981Z,-3.33
2022-12-18T05:46:44.384Z,-3.24
2022-12-18T05:49:10.901Z,-3.50
2022-12-18T05:51:37.499Z,-3.64
2022-12-18T05:54:06.303Z,-3.83
2022-12-18T05:56:33.125Z,-3.72
2022-12-18T05:59:02.151Z,-3.65
2022-12-18T06:01:32.038Z,-2.31
2022-12-18T06:03:59.120Z,-2.67
2022-12-18T06:06:29.868Z,-2.95
2022-12-18T06:08:57.927Z,-3.43
2022-12-18T06:11:26.990Z,-3.77
2022-12-18T06:14:00.252Z,-3.38
2022-12-18T06:16:31.205Z,-3.45
2022-12-18T06:19:01.142Z,-3.74
2022-12-18T06:21:29.694Z,-3.78
2022-12-18T06:23:56.574Z,-3.63
2022-12-18T06:26:28.033Z,-3.42
2022-12-18T06:28:56.146Z,-3.38
2022-12-18T06:31:25.120Z,-3.60
2022-12-18T06:33:51.723Z,-3.70
2022-12-18T06:36:18.376Z,-3.76
2022-12-18T06:38:47.416Z,-3.70
2022-12-18T06:41:17.361Z,-3.75
2022-12-18T06:43:46.542Z,-3.73
2022-12-18T06:46:13.706Z,-3.67
2022-12-18T06:48:42.871Z,-4.01
2022-12-18T06:51:11.620Z,-3.95
2022-12-18T06:53:38.477Z,-3.80
2022-12-18T06:56:10.226Z,-4.16
2022-12-18T06:58:38.211Z,-4.07
2022-12-18T07:01:09.951Z,-3.87
2022-12-18T07:03:39.763Z,-3.82
2022-12-18T07:06:09.400Z,-3.61
2022-12-18T07:08:35.978Z,-3.80
2022-12-18T07:11:06.685Z,-3.64
2022-12-18T07:13:33.219Z,-3.94
2022-12-18T07:16:24.815Z,-3.70
2022-12-18T07:18:52.787Z,-3.47
2022-12-18T07:21:23.098Z,-3.63
2022-12-18T07:23:49.767Z,-3.51
2022-12-18T07:26:19.182Z,-3.31
2022-12-18T07:28:45.992Z,-3.15
2022-12-18T07:31:18.911Z,-2.97
2022-12-18T07:33:46.675Z,-2.92
2022-12-18T07:36:14.312Z,-2.86
2022-12-18T07:38:43.078Z,-3.03
2022-12-18T07:41:12.545Z,-2.96
2022-12-18T07:43:39.618Z,-3.07
2022-12-18T07:46:07.233Z,-3.01
2022-12-18T07:48:33.926Z,-2.84
2022-12-18T07:51:05.290Z,-2.92
2022-12-18T07:53:32.655Z,-2.87
2022-12-18T07:58:56.126Z,-2.61
2022-12-18T08:01:25.803Z,-2.61
2022-12-18T08:03:54.888Z,-2.67
2022-12-18T08:06:23.290Z,-2.48
2022-12-18T08:08:57.830Z,-2.34
2022-12-18T08:11:26.700Z,-2.26
2022-12-18T08:13:54.144Z,-2.32
2022-12-18T08:16:21.892Z,-2.33
2022-12-18T08:18:49.438Z,-2.40
2022-12-18T08:21:27.328Z,-2.30
2022-12-18T08:23:58.075Z,-2.25
2022-12-18T08:26:31.643Z,-2.13
2022-12-18T08:29:01.324Z,-1.93
2022-12-18T08:31:32.067Z,-2.12
2022-12-18T08:33:58.851Z,-1.94
2022-12-18T08:36:27.795Z,-1.74
2022-12-18T08:38:57.566Z,-1.65
2022-12-18T08:41:24.758Z,-1.59
2022-12-18T08:44:09.894Z,-1.65
2022-12-18T08:46:44.219Z,-1.56
2022-12-18T08:49:12.269Z,-1.64
2022-12-18T08:51:39.449Z,-1.61
2022-12-18T08:54:08.674Z,-1.44
2022-12-18T08:56:35.380Z,-1.55
2022-12-18T08:59:07.325Z,-1.62
2022-12-18T09:01:34.572Z,-1.07
2022-12-18T09:04:07.623Z,-0.04
2022-12-18T09:06:34.954Z,-0.16
2022-12-18T09:09:04.953Z,-0.78
2022-12-18T09:11:34.943Z,-0.74
2022-12-18T09:14:05.271Z,-0.82
2022-12-18T09:16:33.411Z,-0.70
2022-12-18T09:19:01.205Z,-0.68
2022-12-18T09:21:37.215Z,-0.93
2022-12-18T09:24:05.127Z,-0.82
2022-12-18T09:26:38.581Z,-0.85
2022-12-18T09:29:08.691Z,-0.60
2022-12-18T09:31:35.332Z,-0.67
2022-12-18T09:34:04.160Z,-0.61
2022-12-18T09:36:30.991Z,-0.58
2022-12-18T09:38:57.711Z,-0.44
2022-12-18T09:41:48.900Z,-0.33
2022-12-18T09:44:21.232Z,-0.35
2022-12-18T09:47:12.924Z,-0.41
2022-12-18T09:52:34.411Z,-0.41
2022-12-18T09:55:24.866Z,-0.18
2022-12-18T09:58:00.137Z,-0.11
2022-12-18T10:00:29.282Z,-0.04
2022-12-18T10:03:10.030Z,0.08
2022-12-18T10:06:01.866Z,0.10
2022-12-18T10:08:40.788Z,0.16
2022-12-18T10:11:19.432Z,0.24
2022-12-18T10:13:54.665Z,0.31
2022-12-18T10:16:45.002Z,0.42
2022-12-18T10:19:20.301Z,0.50
2022-12-18T10:22:13.381Z,0.64
2022-12-18T10:24:46.450Z,0.49
2022-12-18T10:27:22.544Z,0.39
2022-12-18T10:29:51.583Z,0.60
2022-12-18T10:32:29.558Z,0.59
2022-12-18T10:35:00.801Z,0.69
2022-12-18T10:37:31.031Z,0.86
2022-12-18T10:40:21.900Z,0.82
2022-12-18T10:43:09.194Z,0.74
2022-12-18T10:45:36.087Z,0.85
2022-12-18T10:48:07.364Z,0.69
2022-12-18T10:51:09.214Z,1.04
2022-12-18T10:53:30.721Z,1.27
2022-12-18T10:55:59.936Z,1.40
2022-12-18T10:58:35.912Z,1.45
2022-12-18T11:01:07.543Z,1.01
2022-12-18T11:03:57.707Z,1.39
2022-12-18T11:06:28.962Z,1.64
2022-12-18T11:09:12.212Z,1.73
2022-12-18T11:11:42.224Z,1.86
2022-12-18T11:14:25.037Z,1.92
2022-12-18T11:19:45.644Z,2.02
2022-12-18T11:22:27.821Z,2.08
2022-12-18T11:25:30.807Z,1.92
2022-12-18T11:27:52.367Z,1.86
2022-12-18T11:30:30.430Z,1.93
2022-12-18T11:33:02.304Z,2.04
2022-12-18T11:35:36.930Z,2.01
2022-12-18T11:38:25.158Z,1.98
2022-12-18T11:40:54.802Z,1.93
2022-12-18T11:43:32.643Z,1.89
2022-12-18T11:46:12.421Z,1.81
2022-12-18T11:49:07.445Z,1.90
2022-12-18T11:51:50.155Z,2.06
2022-12-18T11:54:17.640Z,2.18
2022-12-18T11:57:05.252Z,2.17
2022-12-18T11:59:37.022Z,2.26
2022-12-18T12:02:45.954Z,2.38
2022-12-18T12:05:15.891Z,2.38
2022-12-18T12:07:48.422Z,2.26
2022-12-18T12:10:27.145Z,2.32
2022-12-18T12:13:14.813Z,2.29
2022-12-18T12:16:05.551Z,2.24
2022-12-18T12:18:43.992Z,2.33
2022-12-18T12:21:22.998Z,2.29
2022-12-18T12:23:52.431Z,2.28
2022-12-18T12:26:42.158Z,2.53
2022-12-18T12:29:30.627Z,2.35
2022-12-18T12:32:12.595Z,2.39
2022-12-18T12:34:45.224Z,2.50
2022-12-18T12:37:37.540Z,2.61
2022-12-18T12:40:41.024Z,2.42
2022-12-18T12:43:19.212Z,2.43
2022-12-18T12:46:08.365Z,2.40
2022-12-18T12:48:50.249Z,2.41
2022-12-18T12:51:19.643Z,2.49
2022-12-18T12:53:49.931Z,2.43
2022-12-18T12:56:19.848Z,2.57
2022-12-18T12:59:25.910Z,2.62
2022-12-18T13:01:55.750Z,2.57
2022-12-18T13:04:31.092Z,2.48
2022-12-18T13:07:00.670Z,2.31
2022-12-18T13:09:35.005Z,2.23
2022-12-18T13:12:30.606Z,2.22
2022-12-18T13:15:23.472Z,2.17
2022-12-18T13:17:50.175Z,2.23
2022-12-18T13:20:17.404Z,2.05
2022-12-18T13:22:48.227Z,2.01
2022-12-18T13:25:36.547Z,1.96
2022-12-18T13:28:09.715Z,1.84
2022-12-18T13:30:36.243Z,1.76
2022-12-18T13:33:15.532Z,1.81
2022-12-18T13:35:49.030Z,1.77
2022-12-18T13:38:24.826Z,1.63
2022-12-18T13:40:51.338Z,1.67
2022-12-18T13:43:21.143Z,1.70
2022-12-18T13:46:00.201Z,1.79
2022-12-18T13:48:28.659Z,1.72
2022-12-18T13:51:08.047Z,1.52
2022-12-18T13:53:40.081Z,2.12
2022-12-18T13:56:11.913Z,2.11
2022-12-18T13:58:38.852Z,1.81
2022-12-18T14:01:06.190Z,1.95
2022-12-18T14:03:33.164Z,1.86
2022-12-18T14:06:13.619Z,2.12
2022-12-18T14:08:45.053Z,2.65
2022-12-18T14:11:23.321Z,2.33
2022-12-18T14:13:53.216Z,2.18
2022-12-18T14:16:23.126Z,2.12
2022-12-18T14:19:05.545Z,1.79
2022-12-18T14:21:38.464Z,1.77
2022-12-18T14:24:19.740Z,1.89
2022-12-18T14:26:48.411Z,1.98
2022-12-18T14:29:25.671Z,1.91
2022-12-18T14:32:18.891Z,1.67
2022-12-18T14:34:56.564Z,1.53
2022-12-18T14:37:30.612Z,1.43
2022-12-18T14:40:10.513Z,1.55
2022-12-18T14:42:40.267Z,1.67
2022-12-18T14:45:43.696Z,1.51
2022-12-18T14:48:22.997Z,1.15
2022-12-18T14:51:04.687Z,1.25
2022-12-18T14:53:34.557Z,1.20
2022-12-18T14:56:02.174Z,1.24
2022-12-18T14:58:33.517Z,1.23
2022-12-18T15:01:02.665Z,1.15
2022-12-18T15:03:29.575Z,1.11
2022-12-18T15:05:58.961Z,1.13
2022-12-18T15:08:35.437Z,1.06
2022-12-18T15:11:02.127Z,0.98
2022-12-18T15:13:29.946Z,0.95
2022-12-18T15:16:03.990Z,0.96
2022-12-18T15:18:42.580Z,0.92
2022-12-18T15:21:14.799Z,0.89
2022-12-18T15:23:47.481Z,0.86
2022-12-18T15:26:17.119Z,0.87
2022-12-18T15:28:52.122Z,0.84
2022-12-18T15:31:18.661Z,0.78
2022-12-18T15:33:53.981Z,0.62
2022-12-18T15:36:27.037Z,0.45
2022-12-18T15:39:00.943Z,0.24
2022-12-18T15:41:35.782Z,0.23
2022-12-18T15:44:03.020Z,0.21
2022-12-18T15:46:33.005Z,0.20
2022-12-18T15:49:03.559Z,0.08
2022-12-18T15:51:37.701Z,0.14
2022-12-18T15:54:07.400Z,1.50
2022-12-18T15:56:54.961Z,2.69
2022-12-18T15:59:21.759Z,1.98
2022-12-18T16:01:52.207Z,1.57
2022-12-18T16:04:24.657Z,1.42
